Time;durP1;ratioP1;P1;durP2;ratioP2;P2;SDS_P1;SDS_P2;PMS_P1;PMS_P2;Temp;Humidity;BMP_temperature;BMP_pressure;BME280_temperature;BME280_humidity;BME280_pressure;Samples;Min_cycle;Max_cycle;Signal;HPM_P1;HPM_P2
2022/03/02 00:01:17;;;;;;;50.17;25.70;;;;;;;;;;5030046;28;20188;-73
2022/03/02 00:03:45;;;;;;;53.67;24.90;;;;;;;;;;5029935;28;20044;-73
2022/03/02 00:06:13;;;;;;;48.13;24.67;;;;;;;;;;5031064;28;20260;-74
2022/03/02 00:08:41;;;;;;;56.50;25.00;;;;;;;;;;5031753;28;20370;-73
2022/03/02 00:11:10;;;;;;;55.30;25.17;;;;;;;;;;5034747;28;20505;-73
2022/03/02 00:13:38;;;;;;;54.35;25.67;;;;;;;;;;5029917;28;20060;-73
2022/03/02 00:16:09;;;;;;;52.80;26.25;;;;;;;;;;5028356;28;20100;-73
2022/03/02 00:18:38;;;;;;;51.20;24.48;;;;;;;;;;5030565;28;20059;-74
2022/03/02 00:21:06;;;;;;;51.17;24.80;;;;;;;;;;5034391;28;20059;-72
2022/03/02 00:23:34;;;;;;;49.20;25.80;;;;;;;;;;5035002;28;20122;-74
2022/03/02 00:26:02;;;;;;;56.97;24.80;;;;;;;;;;5032764;28;20062;-74
2022/03/02 00:28:30;;;;;;;47.38;24.77;;;;;;;;;;5030526;28;20056;-73
2022/03/02 00:30:58;;;;;;;52.80;25.20;;;;;;;;;;5031435;28;20213;-74
2022/03/02 00:33:26;;;;;;;49.63;25.58;;;;;;;;;;5031413;28;20052;-73
2022/03/02 00:35:55;;;;;;;54.85;26.63;;;;;;;;;;5032672;28;20103;-74
2022/03/02 00:38:22;;;;;;;52.38;24.52;;;;;;;;;;5031397;28;20671;-74
2022/03/02 00:40:50;;;;;;;51.10;24.88;;;;;;;;;;5033199;28;20111;-74
2022/03/02 00:43:18;;;;;;;52.03;24.20;;;;;;;;;;5026887;28;20118;-73
2022/03/02 00:45:46;;;;;;;51.17;24.45;;;;;;;;;;5029587;28;20263;-74
2022/03/02 00:48:14;;;;;;;50.42;25.17;;;;;;;;;;5031730;28;20072;-74
2022/03/02 00:50:45;;;;;;;49.78;24.55;;;;;;;;;;5031154;28;20052;-74
2022/03/02 00:53:14;;;;;;;54.33;24.45;;;;;;;;;;5030536;28;20051;-74
2022/03/02 00:55:42;;;;;;;56.80;26.15;;;;;;;;;;5034142;28;20041;-74
2022/03/02 00:58:10;;;;;;;52.05;25.92;;;;;;;;;;5034549;28;20084;-74
2022/03/02 01:00:38;;;;;;;55.45;25.65;;;;;;;;;;5032491;28;20184;-74
2022/03/02 01:03:07;;;;;;;52.53;25.92;;;;;;;;;;5034403;28;20102;-73
2022/03/02 01:05:34;;;;;;;49.05;23.77;;;;;;;;;;5031676;28;20053;-73
2022/03/02 01:08:02;;;;;;;50.25;24.60;;;;;;;;;;5032313;28;20053;-73
2022/03/02 01:10:31;;;;;;;52.78;26.30;;;;;;;;;;5031531;28;20072;-73
2022/03/02 01:12:58;;;;;;;51.20;24.63;;;;;;;;;;5029694;28;20092;-73
2022/03/02 01:15:26;;;;;;;54.67;25.15;;;;;;;;;;5029610;28;20053;-73
2022/03/02 01:17:54;;;;;;;53.22;25.25;;;;;;;;;;5031274;28;20053;-73
2022/03/02 01:20:22;;;;;;;48.40;23.73;;;;;;;;;;5029576;28;20146;-73
2022/03/02 01:23:13;;;;;;;52.65;25.65;;;;;;;;;;5029914;28;20191;-73
2022/03/02 01:25:42;;;;;;;53.38;23.23;;;;;;;;;;5031518;28;20057;-74
2022/03/02 01:28:10;;;;;;;54.53;24.90;;;;;;;;;;5027047;28;20059;-73
2022/03/02 01:30:37;;;;;;;49.58;23.58;;;;;;;;;;5031763;28;20148;-73
2022/03/02 01:33:05;;;;;;;49.50;25.35;;;;;;;;;;5029228;28;20045;-73
2022/03/02 01:35:33;;;;;;;49.78;23.52;;;;;;;;;;5033847;28;20075;-73
2022/03/02 01:38:01;;;;;;;56.08;25.52;;;;;;;;;;5031881;28;20719;-75
2022/03/02 01:40:29;;;;;;;51.05;22.88;;;;;;;;;;5029999;28;20136;-73
2022/03/02 01:42:57;;;;;;;50.80;24.83;;;;;;;;;;5030332;28;20523;-74
2022/03/02 01:45:25;;;;;;;52.83;24.65;;;;;;;;;;5030032;28;20055;-73
2022/03/02 01:47:53;;;;;;;51.33;24.92;;;;;;;;;;5029070;28;20071;-73
2022/03/02 01:50:23;;;;;;;52.58;24.38;;;;;;;;;;5027892;28;20108;-73
2022/03/02 01:52:50;;;;;;;54.38;26.45;;;;;;;;;;5026582;28;20053;-75
2022/03/02 01:55:18;;;;;;;58.00;26.52;;;;;;;;;;5031033;28;20199;-72
2022/03/02 01:57:46;;;;;;;51.17;23.85;;;;;;;;;;5036758;28;20041;-74
2022/03/02 02:00:18;;;;;;;51.47;24.55;;;;;;;;;;5030940;28;20068;-73
2022/03/02 02:02:46;;;;;;;48.97;24.05;;;;;;;;;;5030358;28;20072;-73
2022/03/02 02:05:15;;;;;;;49.00;24.95;;;;;;;;;;5032557;28;20048;-74
2022/03/02 02:07:43;;;;;;;48.42;23.90;;;;;;;;;;5029855;28;20037;-74
2022/03/02 02:10:11;;;;;;;46.55;23.30;;;;;;;;;;5028282;28;20138;-74
2022/03/02 02:12:38;;;;;;;54.53;25.05;;;;;;;;;;5025020;28;20057;-74
2022/03/02 02:15:07;;;;;;;51.70;24.70;;;;;;;;;;5028254;28;20154;-75
2022/03/02 02:17:36;;;;;;;56.65;25.00;;;;;;;;;;5029021;28;20056;-73
2022/03/02 02:20:06;;;;;;;51.22;24.52;;;;;;;;;;5029037;28;20343;-73
2022/03/02 02:22:38;;;;;;;54.75;23.48;;;;;;;;;;5031234;28;20151;-73
2022/03/02 02:25:06;;;;;;;51.05;23.88;;;;;;;;;;5031373;28;20056;-72
2022/03/02 02:27:34;;;;;;;48.10;23.65;;;;;;;;;;5035419;28;20045;-73
2022/03/02 02:30:03;;;;;;;46.85;22.02;;;;;;;;;;5028573;28;20060;-73
2022/03/02 02:32:30;;;;;;;45.13;23.35;;;;;;;;;;5031617;28;20056;-73
2022/03/02 02:34:58;;;;;;;45.95;22.45;;;;;;;;;;5035402;28;20048;-73
2022/03/02 02:37:26;;;;;;;47.10;21.65;;;;;;;;;;5032189;28;20146;-72
2022/03/02 02:39:59;;;;;;;48.92;21.67;;;;;;;;;;5033731;28;20063;-73
2022/03/02 02:42:27;;;;;;;49.70;24.73;;;;;;;;;;5031836;28;20053;-75
2022/03/02 02:44:55;;;;;;;48.88;23.80;;;;;;;;;;5031797;28;20061;-73
2022/03/02 02:47:26;;;;;;;47.65;22.05;;;;;;;;;;5033090;28;20140;-73
2022/03/02 02:49:53;;;;;;;44.70;22.85;;;;;;;;;;5029432;28;20057;-74
2022/03/02 02:52:21;;;;;;;51.30;24.73;;;;;;;;;;5032041;28;20052;-74
2022/03/02 02:54:49;;;;;;;51.17;23.80;;;;;;;;;;5033392;28;20044;-73
2022/03/02 02:57:19;;;;;;;44.70;23.33;;;;;;;;;;5032108;28;20071;-73
2022/03/02 02:59:46;;;;;;;44.28;22.55;;;;;;;;;;5032830;28;20045;-74
2022/03/02 03:02:14;;;;;;;51.80;24.45;;;;;;;;;;5028575;28;20516;-74
2022/03/02 03:04:42;;;;;;;44.80;23.05;;;;;;;;;;5032038;28;20076;-74
2022/03/02 03:07:10;;;;;;;47.13;22.58;;;;;;;;;;5030990;28;20176;-73
2022/03/02 03:09:38;;;;;;;48.75;22.20;;;;;;;;;;5033252;28;20135;-73
2022/03/02 03:12:13;;;;;;;47.45;22.52;;;;;;;;;;5032716;28;20049;-73
2022/03/02 03:14:42;;;;;;;42.63;21.92;;;;;;;;;;5033106;28;20177;-73
2022/03/02 03:17:10;;;;;;;45.50;21.83;;;;;;;;;;5033204;28;20182;-73
2022/03/02 03:19:39;;;;;;;52.05;23.70;;;;;;;;;;5030490;28;20049;-73
2022/03/02 03:22:07;;;;;;;44.80;22.08;;;;;;;;;;5036772;28;20055;-73
2022/03/02 03:24:37;;;;;;;53.63;24.40;;;;;;;;;;5033984;28;20056;-73
2022/03/02 03:27:04;;;;;;;48.10;22.45;;;;;;;;;;5036456;28;20052;-73
2022/03/02 03:29:33;;;;;;;51.58;24.92;;;;;;;;;;5027937;28;20048;-73
2022/03/02 03:32:02;;;;;;;47.67;23.02;;;;;;;;;;5030950;28;20045;-73
2022/03/02 03:34:29;;;;;;;44.55;23.05;;;;;;;;;;5032622;28;20359;-72
2022/03/02 03:36:57;;;;;;;45.70;22.17;;;;;;;;;;5029871;28;20578;-75
2022/03/02 03:39:25;;;;;;;50.00;24.27;;;;;;;;;;5026454;28;20176;-73
2022/03/02 03:41:55;;;;;;;49.25;23.55;;;;;;;;;;5032213;28;20195;-74
2022/03/02 03:44:23;;;;;;;49.10;22.80;;;;;;;;;;5029508;28;20048;-73
2022/03/02 03:46:50;;;;;;;42.75;21.38;;;;;;;;;;5030058;28;20504;-73
2022/03/02 03:49:20;;;;;;;42.30;22.52;;;;;;;;;;5029641;28;20051;-73
2022/03/02 03:51:47;;;;;;;48.85;24.63;;;;;;;;;;5029822;28;20135;-74
2022/03/02 03:54:15;;;;;;;49.05;22.90;;;;;;;;;;5026952;28;20052;-73
2022/03/02 03:56:42;;;;;;;50.22;24.00;;;;;;;;;;5030058;28;20469;-75
2022/03/02 03:59:10;;;;;;;47.90;22.45;;;;;;;;;;5030595;28;20044;-74
2022/03/02 04:01:38;;;;;;;51.55;23.13;;;;;;;;;;5027125;28;20501;-74
2022/03/02 04:04:06;;;;;;;53.28;23.88;;;;;;;;;;5028501;28;20083;-74
2022/03/02 04:06:35;;;;;;;48.22;22.95;;;;;;;;;;5031086;28;20099;-73
2022/03/02 04:09:03;;;;;;;44.42;22.33;;;;;;;;;;5032240;28;20049;-73
2022/03/02 04:11:31;;;;;;;52.63;24.13;;;;;;;;;;5031807;28;20170;-74
2022/03/02 04:13:59;;;;;;;46.13;24.70;;;;;;;;;;5029960;28;20215;-73
2022/03/02 04:16:27;;;;;;;46.83;23.15;;;;;;;;;;5031201;28;20065;-74
2022/03/02 04:18:55;;;;;;;47.55;23.35;;;;;;;;;;5034294;28;20056;-74
2022/03/02 04:21:22;;;;;;;49.10;23.42;;;;;;;;;;5030198;28;20059;-74
2022/03/02 04:23:51;;;;;;;50.13;23.67;;;;;;;;;;5031192;28;20103;-74
2022/03/02 04:26:19;;;;;;;43.58;21.92;;;;;;;;;;5028648;28;20141;-74
2022/03/02 04:28:47;;;;;;;45.13;22.13;;;;;;;;;;5031096;28;20197;-73
2022/03/02 04:31:14;;;;;;;46.35;23.15;;;;;;;;;;5034765;28;20152;-74
2022/03/02 04:34:06;;;;;;;46.97;23.17;;;;;;;;;;5032745;28;20056;-74
2022/03/02 04:36:36;;;;;;;43.13;23.10;;;;;;;;;;5032229;28;20063;-73
2022/03/02 04:39:05;;;;;;;49.10;23.73;;;;;;;;;;5031833;28;20053;-74
2022/03/02 04:41:33;;;;;;;43.55;22.52;;;;;;;;;;5030489;28;20055;-73
2022/03/02 04:44:00;;;;;;;48.42;22.20;;;;;;;;;;5028713;28;20045;-73
2022/03/02 04:46:28;;;;;;;44.42;21.17;;;;;;;;;;5033475;28;20509;-73
2022/03/02 04:48:56;;;;;;;44.55;22.80;;;;;;;;;;5031416;28;20553;-73
2022/03/02 04:51:23;;;;;;;47.88;24.30;;;;;;;;;;5033365;28;20049;-73
2022/03/02 04:53:52;;;;;;;46.72;21.70;;;;;;;;;;5027710;28;20057;-74
2022/03/02 04:56:21;;;;;;;46.75;23.45;;;;;;;;;;5033803;28;20665;-73
2022/03/02 04:58:49;;;;;;;41.30;21.13;;;;;;;;;;5030769;28;20111;-73
2022/03/02 05:01:17;;;;;;;42.30;21.35;;;;;;;;;;5033490;28;20492;-73
2022/03/02 05:03:44;;;;;;;45.75;23.88;;;;;;;;;;5027957;28;20053;-73
2022/03/02 05:09:04;;;;;;;41.47;20.73;;;;;;;;;;5029504;28;20064;-73
2022/03/02 05:11:37;;;;;;;43.72;21.77;;;;;;;;;;5029771;28;20489;-73
2022/03/02 05:14:05;;;;;;;44.30;23.25;;;;;;;;;;5034383;28;20119;-73
2022/03/02 05:16:33;;;;;;;49.45;23.55;;;;;;;;;;5032107;28;20055;-73
2022/03/02 05:19:01;;;;;;;46.97;22.30;;;;;;;;;;5029145;28;20045;-73
2022/03/02 05:21:28;;;;;;;48.00;23.38;;;;;;;;;;5033862;28;20481;-73
2022/03/02 05:23:56;;;;;;;47.72;22.67;;;;;;;;;;5028753;28;20170;-73
2022/03/02 05:26:24;;;;;;;47.53;23.58;;;;;;;;;;5033616;28;20166;-73
2022/03/02 05:28:53;;;;;;;43.75;22.08;;;;;;;;;;5029587;28;20146;-74
2022/03/02 05:31:23;;;;;;;46.38;23.80;;;;;;;;;;5033320;28;20059;-73
2022/03/02 05:33:52;;;;;;;51.72;24.38;;;;;;;;;;5031965;28;20460;-73
2022/03/02 05:36:24;;;;;;;48.67;23.05;;;;;;;;;;5033613;28;20053;-73
2022/03/02 05:38:53;;;;;;;45.03;22.40;;;;;;;;;;5030257;28;20124;-73
2022/03/02 05:41:21;;;;;;;45.95;23.40;;;;;;;;;;5031462;28;20044;-73
2022/03/02 05:44:14;;;;;;;47.80;22.75;;;;;;;;;;5028017;28;20827;-73
2022/03/02 05:47:06;;;;;;;39.45;20.85;;;;;;;;;;5028749;28;20146;-73
2022/03/02 05:49:58;;;;;;;48.05;23.15;;;;;;;;;;5028744;28;20752;-73
2022/03/02 05:52:25;;;;;;;47.28;23.27;;;;;;;;;;5027685;28;20091;-73
2022/03/02 05:54:53;;;;;;;49.58;23.80;;;;;;;;;;5028055;28;20063;-73
2022/03/02 05:57:21;;;;;;;48.00;23.42;;;;;;;;;;5030508;28;20091;-73
2022/03/02 05:59:50;;;;;;;47.60;23.95;;;;;;;;;;5032471;28;20057;-74
2022/03/02 06:02:18;;;;;;;49.38;24.35;;;;;;;;;;5028629;28;20159;-74
2022/03/02 06:04:49;;;;;;;48.67;23.27;;;;;;;;;;5030464;28;20051;-73
2022/03/02 06:07:17;;;;;;;48.67;23.55;;;;;;;;;;5028951;28;20045;-73
2022/03/02 06:09:45;;;;;;;44.13;22.65;;;;;;;;;;5028074;28;20194;-73
2022/03/02 06:12:14;;;;;;;45.85;23.77;;;;;;;;;;5028353;28;20111;-74
2022/03/02 06:14:42;;;;;;;47.15;23.73;;;;;;;;;;5033311;28;20114;-73
2022/03/02 06:17:12;;;;;;;49.00;24.42;;;;;;;;;;5026527;28;20266;-74
2022/03/02 06:19:41;;;;;;;42.30;23.13;;;;;;;;;;5031645;28;20056;-73
2022/03/02 06:22:10;;;;;;;50.22;23.15;;;;;;;;;;5030228;28;20441;-73
2022/03/02 06:24:38;;;;;;;47.58;23.80;;;;;;;;;;5033462;28;20052;-74
2022/03/02 06:27:05;;;;;;;50.63;25.38;;;;;;;;;;5027183;28;20072;-76
2022/03/02 06:29:33;;;;;;;40.42;22.20;;;;;;;;;;5027594;28;20049;-74
2022/03/02 06:32:02;;;;;;;46.15;22.70;;;;;;;;;;5032631;28;20131;-74
2022/03/02 06:34:35;;;;;;;46.90;21.75;;;;;;;;;;5030923;28;20056;-74
2022/03/02 06:37:03;;;;;;;44.33;20.33;;;;;;;;;;5030629;28;20080;-73
2022/03/02 06:39:30;;;;;;;44.92;24.00;;;;;;;;;;5030512;28;20060;-73
2022/03/02 06:42:04;;;;;;;40.22;21.27;;;;;;;;;;5034622;28;20780;-73
2022/03/02 06:44:34;;;;;;;48.20;22.70;;;;;;;;;;5034190;28;20091;-73
2022/03/02 06:47:04;;;;;;;47.47;22.50;;;;;;;;;;5032286;28;20072;-74
2022/03/02 06:49:44;;;;;;;45.83;22.25;;;;;;;;;;5030671;28;20159;-73
2022/03/02 06:52:12;;;;;;;41.40;21.52;;;;;;;;;;5030935;28;20045;-74
2022/03/02 06:54:43;;;;;;;43.85;22.58;;;;;;;;;;5028008;28;20442;-74
2022/03/02 06:57:13;;;;;;;44.83;21.95;;;;;;;;;;5032348;28;20056;-73
2022/03/02 06:59:42;;;;;;;39.80;21.80;;;;;;;;;;5032803;28;20059;-74
2022/03/02 07:02:12;;;;;;;49.70;23.40;;;;;;;;;;5032155;28;20076;-75
2022/03/02 07:05:06;;;;;;;48.27;22.27;;;;;;;;;;5029944;28;20223;-74
2022/03/02 07:07:35;;;;;;;48.28;23.90;;;;;;;;;;5032488;28;20286;-73
2022/03/02 07:10:03;;;;;;;47.28;22.92;;;;;;;;;;5037722;28;20159;-74
2022/03/02 07:12:31;;;;;;;43.35;21.40;;;;;;;;;;5028902;28;20073;-74
2022/03/02 07:14:59;;;;;;;46.05;22.63;;;;;;;;;;5030562;28;20744;-74
2022/03/02 07:17:32;;;;;;;43.03;22.08;;;;;;;;;;5035821;28;20049;-74
2022/03/02 07:20:00;;;;;;;45.80;21.85;;;;;;;;;;5032904;28;21853;-74
2022/03/02 07:22:32;;;;;;;44.38;22.23;;;;;;;;;;5030288;28;20778;-73
2022/03/02 07:25:03;;;;;;;39.92;20.90;;;;;;;;;;5026690;28;20657;-73
2022/03/02 07:27:55;;;;;;;45.20;20.90;;;;;;;;;;5032996;28;20067;-74
2022/03/02 07:30:23;;;;;;;42.45;21.13;;;;;;;;;;5027634;28;20045;-74
2022/03/02 07:32:54;;;;;;;40.13;20.42;;;;;;;;;;5032830;28;20045;-74
2022/03/02 07:35:23;;;;;;;43.42;22.35;;;;;;;;;;5032986;28;20064;-74
2022/03/02 07:37:54;;;;;;;44.00;20.80;;;;;;;;;;5032272;28;20049;-74
2022/03/02 07:40:21;;;;;;;42.80;21.58;;;;;;;;;;5036732;28;20041;-74
2022/03/02 07:42:49;;;;;;;43.75;20.98;;;;;;;;;;5038065;28;20049;-74
2022/03/02 07:45:17;;;;;;;43.10;21.38;;;;;;;;;;5035306;28;20106;-73
2022/03/02 07:47:45;;;;;;;40.15;19.00;;;;;;;;;;5034092;28;20048;-73
2022/03/02 07:50:14;;;;;;;37.63;19.85;;;;;;;;;;5031586;28;20111;-74
2022/03/02 07:52:46;;;;;;;40.33;19.42;;;;;;;;;;5033465;28;20207;-74
2022/03/02 07:55:17;;;;;;;35.30;18.05;;;;;;;;;;5031628;28;20127;-74
2022/03/02 07:57:45;;;;;;;37.65;18.95;;;;;;;;;;5036994;28;20132;-73
2022/03/02 08:00:13;;;;;;;37.15;19.90;;;;;;;;;;5034376;28;20047;-74
2022/03/02 08:02:42;;;;;;;38.83;18.90;;;;;;;;;;5038864;28;20293;-75
2022/03/02 08:05:32;;;;;;;33.85;18.13;;;;;;;;;;5039526;28;20057;-74
2022/03/02 08:08:08;;;;;;;36.60;17.38;;;;;;;;;;5040100;28;20061;-77
2022/03/02 08:11:02;;;;;;;38.65;19.15;;;;;;;;;;5040034;28;20105;-75
2022/03/02 08:13:33;;;;;;;39.05;19.73;;;;;;;;;;5033903;28;20769;-73
2022/03/02 08:16:03;;;;;;;42.88;19.67;;;;;;;;;;5034839;28;20061;-74
2022/03/02 08:18:32;;;;;;;41.55;20.30;;;;;;;;;;5037557;28;20132;-75
2022/03/02 08:21:00;;;;;;;34.47;18.70;;;;;;;;;;5033947;28;20051;-74
2022/03/02 08:23:29;;;;;;;37.58;19.27;;;;;;;;;;5034095;28;20119;-75
2022/03/02 08:25:57;;;;;;;37.35;17.88;;;;;;;;;;5034011;28;20057;-74
2022/03/02 08:28:33;;;;;;;38.70;18.20;;;;;;;;;;5034158;28;20067;-74
2022/03/02 08:31:01;;;;;;;34.60;17.55;;;;;;;;;;5035216;28;20053;-74
2022/03/02 08:33:34;;;;;;;37.35;19.67;;;;;;;;;;5037060;28;20111;-74
2022/03/02 08:36:02;;;;;;;39.47;18.55;;;;;;;;;;5028898;28;20513;-74
2022/03/02 08:38:29;;;;;;;36.13;17.95;;;;;;;;;;5034438;28;20045;-75
2022/03/02 08:40:57;;;;;;;36.25;18.85;;;;;;;;;;5034781;28;20140;-74
2022/03/02 08:43:25;;;;;;;38.72;19.85;;;;;;;;;;5033676;28;20584;-74
2022/03/02 08:45:54;;;;;;;37.97;18.02;;;;;;;;;;5033633;28;20065;-74
2022/03/02 08:48:22;;;;;;;36.45;18.23;;;;;;;;;;5032724;28;20182;-75
2022/03/02 08:50:52;;;;;;;38.85;18.33;;;;;;;;;;5032422;28;20069;-75
2022/03/02 08:53:20;;;;;;;36.83;19.23;;;;;;;;;;5031155;28;20085;-73
2022/03/02 08:55:48;;;;;;;31.83;17.35;;;;;;;;;;5032872;28;20037;-74
2022/03/02 08:58:16;;;;;;;34.00;16.95;;;;;;;;;;5030017;28;20465;-74
2022/03/02 09:00:44;;;;;;;33.63;17.50;;;;;;;;;;5038137;28;20049;-73
2022/03/02 09:03:15;;;;;;;35.90;19.15;;;;;;;;;;5031502;28;20048;-73
2022/03/02 09:05:43;;;;;;;30.05;16.67;;;;;;;;;;5032652;28;20059;-73
2022/03/02 09:08:15;;;;;;;32.88;16.00;;;;;;;;;;5033562;28;20048;-75
2022/03/02 09:10:43;;;;;;;31.17;16.55;;;;;;;;;;5034762;28;20039;-74
2022/03/02 09:13:11;;;;;;;31.40;15.57;;;;;;;;;;5033116;28;20090;-76
2022/03/02 09:15:39;;;;;;;27.42;14.68;;;;;;;;;;5030160;28;20538;-74
2022/03/02 09:18:07;;;;;;;28.70;14.75;;;;;;;;;;5031117;28;20132;-74
2022/03/02 09:20:37;;;;;;;28.65;15.43;;;;;;;;;;5031675;28;20052;-75
2022/03/02 09:23:05;;;;;;;27.45;15.10;;;;;;;;;;5037130;28;20076;-74
2022/03/02 09:25:37;;;;;;;27.10;14.35;;;;;;;;;;5035136;28;20091;-74
2022/03/02 09:28:05;;;;;;;29.48;15.45;;;;;;;;;;5033139;28;20168;-74
2022/03/02 09:30:33;;;;;;;27.83;13.65;;;;;;;;;;5027557;28;20281;-74
2022/03/02 09:33:01;;;;;;;28.90;14.25;;;;;;;;;;5028481;28;20081;-74
2022/03/02 09:35:29;;;;;;;25.90;14.30;;;;;;;;;;5033189;28;20053;-75
2022/03/02 09:37:58;;;;;;;29.25;15.23;;;;;;;;;;5034684;28;20049;-74
2022/03/02 09:40:27;;;;;;;25.42;13.30;;;;;;;;;;5034529;28;20138;-74
2022/03/02 09:42:56;;;;;;;26.35;13.18;;;;;;;;;;5029222;28;20333;-74
2022/03/02 09:45:25;;;;;;;25.88;13.50;;;;;;;;;;5030675;28;20057;-75
2022/03/02 09:47:56;;;;;;;23.35;12.60;;;;;;;;;;5030430;28;20075;-74
2022/03/02 09:50:25;;;;;;;24.45;12.10;;;;;;;;;;5034110;28;20053;-74
2022/03/02 09:52:54;;;;;;;25.55;14.30;;;;;;;;;;5025231;28;20052;-74
2022/03/02 09:55:24;;;;;;;27.30;12.95;;;;;;;;;;5032056;28;20048;-73
2022/03/02 09:57:53;;;;;;;23.67;13.85;;;;;;;;;;5031620;28;20067;-74
2022/03/02 10:00:23;;;;;;;31.52;14.15;;;;;;;;;;5033543;28;20047;-73
2022/03/02 10:02:51;;;;;;;27.85;14.85;;;;;;;;;;5031193;28;20119;-73
2022/03/02 10:05:21;;;;;;;27.50;13.93;;;;;;;;;;5031562;28;20073;-75
2022/03/02 10:07:55;;;;;;;24.25;13.77;;;;;;;;;;5033566;28;20049;-73
2022/03/02 10:10:24;;;;;;;27.05;13.25;;;;;;;;;;5028464;28;20060;-76
2022/03/02 10:12:52;;;;;;;28.25;14.18;;;;;;;;;;5031994;28;20160;-73
2022/03/02 10:15:21;;;;;;;26.75;13.65;;;;;;;;;;5029919;28;20073;-73
2022/03/02 10:17:57;;;;;;;27.67;13.82;;;;;;;;;;5029946;28;20056;-73
2022/03/02 10:20:26;;;;;;;25.52;13.93;;;;;;;;;;5029308;28;20053;-74
2022/03/02 10:23:12;;;;;;;26.05;13.75;;;;;;;;;;5034615;28;20055;-75
2022/03/02 10:25:50;;;;;;;31.65;14.95;;;;;;;;;;5033142;28;20056;-74
2022/03/02 10:28:25;;;;;;;29.17;14.00;;;;;;;;;;5030537;28;20128;-74
2022/03/02 10:31:01;;;;;;;29.02;14.27;;;;;;;;;;5032766;28;20049;-75
2022/03/02 10:33:33;;;;;;;27.40;14.63;;;;;;;;;;5030742;28;20055;-75
2022/03/02 10:36:04;;;;;;;26.42;14.57;;;;;;;;;;5034631;28;20081;-73
2022/03/02 10:38:38;;;;;;;28.00;14.25;;;;;;;;;;5031993;28;20059;-74
2022/03/02 10:41:08;;;;;;;24.45;13.93;;;;;;;;;;5030191;28;20041;-75
2022/03/02 10:43:40;;;;;;;27.73;14.00;;;;;;;;;;5034435;28;20044;-74
2022/03/02 10:46:09;;;;;;;27.15;15.23;;;;;;;;;;5034827;28;20057;-74
2022/03/02 10:48:38;;;;;;;27.98;15.70;;;;;;;;;;5028863;28;20098;-74
2022/03/02 10:51:06;;;;;;;29.30;14.98;;;;;;;;;;5030533;28;20098;-74
2022/03/02 10:53:36;;;;;;;26.52;14.82;;;;;;;;;;5030937;28;20199;-74
2022/03/02 10:56:05;;;;;;;26.70;13.73;;;;;;;;;;5031263;28;20275;-76
2022/03/02 10:58:59;;;;;;;28.25;14.95;;;;;;;;;;5030338;28;20519;-75
2022/03/02 11:01:27;;;;;;;28.48;15.93;;;;;;;;;;5029231;28;20056;-75
2022/03/02 11:03:55;;;;;;;29.35;13.98;;;;;;;;;;5032945;28;20056;-75
2022/03/02 11:06:24;;;;;;;29.10;15.32;;;;;;;;;;5029979;28;20045;-75
2022/03/02 11:08:54;;;;;;;30.17;15.68;;;;;;;;;;5029458;28;20041;-75
2022/03/02 11:11:26;;;;;;;24.50;13.75;;;;;;;;;;5033681;28;20048;-75
2022/03/02 11:14:19;;;;;;;27.60;14.30;;;;;;;;;;5030504;28;20052;-75
2022/03/02 11:16:49;;;;;;;27.20;14.55;;;;;;;;;;5036554;28;20123;-73
2022/03/02 11:19:26;;;;;;;27.73;14.27;;;;;;;;;;5035653;28;20047;-74
2022/03/02 11:21:53;;;;;;;28.77;14.02;;;;;;;;;;5036766;28;20148;-74
2022/03/02 11:24:21;;;;;;;31.15;16.00;;;;;;;;;;5031361;28;20599;-74
2022/03/02 11:26:49;;;;;;;32.22;15.30;;;;;;;;;;5033244;28;20091;-74
2022/03/02 11:29:18;;;;;;;31.38;15.90;;;;;;;;;;5037235;28;20071;-75
2022/03/02 11:31:50;;;;;;;25.83;12.95;;;;;;;;;;5038260;28;20124;-75
2022/03/02 11:34:19;;;;;;;27.23;14.63;;;;;;;;;;5036617;28;20048;-75
2022/03/02 11:36:48;;;;;;;31.25;15.73;;;;;;;;;;5037878;28;20040;-74
2022/03/02 11:39:17;;;;;;;29.92;16.48;;;;;;;;;;5033797;28;20072;-74
2022/03/02 11:41:46;;;;;;;26.45;14.48;;;;;;;;;;5035821;28;20041;-74
2022/03/02 11:44:26;;;;;;;28.67;16.33;;;;;;;;;;5034920;28;20515;-74
2022/03/02 11:46:56;;;;;;;28.42;15.05;;;;;;;;;;5037360;28;20053;-74
2022/03/02 11:49:37;;;;;;;27.52;15.27;;;;;;;;;;5036799;28;20095;-75
2022/03/02 11:52:07;;;;;;;30.98;14.80;;;;;;;;;;5034689;28;20131;-75
2022/03/02 11:54:42;;;;;;;23.15;12.10;;;;;;;;;;5036904;28;20718;-75
2022/03/02 11:57:10;;;;;;;29.02;15.38;;;;;;;;;;5034161;28;20053;-74
2022/03/02 11:59:39;;;;;;;28.17;14.98;;;;;;;;;;5038746;28;20065;-75
2022/03/02 12:02:15;;;;;;;30.08;15.27;;;;;;;;;;5034754;28;20048;-75
2022/03/02 12:05:01;;;;;;;27.58;14.27;;;;;;;;;;5036493;28;20640;-75
2022/03/02 12:07:36;;;;;;;25.30;13.23;;;;;;;;;;5032954;28;20119;-75
2022/03/02 12:10:04;;;;;;;28.38;14.48;;;;;;;;;;5037057;28;20132;-75
2022/03/02 12:12:40;;;;;;;24.80;14.20;;;;;;;;;;5037499;28;20091;-74
2022/03/02 12:15:08;;;;;;;26.45;14.25;;;;;;;;;;5032283;28;20135;-74
2022/03/02 12:17:37;;;;;;;25.73;14.30;;;;;;;;;;5036158;28;20049;-75
2022/03/02 12:20:06;;;;;;;30.35;14.68;;;;;;;;;;5033940;28;20049;-74
2022/03/02 12:22:34;;;;;;;25.38;14.05;;;;;;;;;;5037141;28;20037;-73
2022/03/02 12:25:04;;;;;;;25.30;13.15;;;;;;;;;;5030653;28;20506;-74
2022/03/02 12:27:31;;;;;;;24.70;14.23;;;;;;;;;;5032507;28;20056;-74
2022/03/02 12:30:05;;;;;;;26.70;13.95;;;;;;;;;;5036225;28;20373;-74
2022/03/02 12:32:36;;;;;;;25.40;13.48;;;;;;;;;;5034032;28;20103;-74
2022/03/02 12:35:07;;;;;;;26.98;14.07;;;;;;;;;;5033864;28;20565;-74
2022/03/02 12:37:39;;;;;;;24.50;14.23;;;;;;;;;;5032975;28;20084;-73
2022/03/02 12:40:10;;;;;;;25.42;14.50;;;;;;;;;;5032717;28;20091;-73
2022/03/02 12:42:38;;;;;;;28.65;14.02;;;;;;;;;;5035549;28;20060;-74
2022/03/02 12:45:10;;;;;;;27.40;14.23;;;;;;;;;;5033068;28;20053;-74
2022/03/02 12:47:39;;;;;;;20.70;12.70;;;;;;;;;;5033993;28;20059;-74
2022/03/02 12:50:11;;;;;;;21.83;13.35;;;;;;;;;;5038074;28;20064;-73
2022/03/02 12:52:39;;;;;;;23.40;12.52;;;;;;;;;;5038519;28;20075;-74
2022/03/02 12:55:08;;;;;;;26.83;14.02;;;;;;;;;;5030724;28;20083;-73
2022/03/02 12:57:39;;;;;;;23.92;12.75;;;;;;;;;;5030952;28;20131;-73
2022/03/02 13:00:08;;;;;;;23.33;12.10;;;;;;;;;;5032353;28;20049;-73
2022/03/02 13:03:00;;;;;;;19.35;11.40;;;;;;;;;;5037910;28;20611;-74
2022/03/02 13:05:32;;;;;;;22.75;10.80;;;;;;;;;;5035988;28;20156;-74
2022/03/02 13:08:12;;;;;;;20.23;10.52;;;;;;;;;;5035393;28;20049;-73
2022/03/02 13:11:05;;;;;;;17.27;10.68;;;;;;;;;;5033452;28;20079;-75
2022/03/02 13:13:34;;;;;;;21.42;11.02;;;;;;;;;;5030537;28;20124;-75
2022/03/02 13:16:19;;;;;;;20.40;9.68;;;;;;;;;;5034085;28;20052;-74
2022/03/02 13:18:47;;;;;;;21.08;10.52;;;;;;;;;;5032714;28;20049;-75
2022/03/02 13:21:18;;;;;;;22.52;11.82;;;;;;;;;;5030976;28;20037;-74
2022/03/02 13:24:08;;;;;;;18.38;10.23;;;;;;;;;;5032648;28;20057;-73
2022/03/02 13:26:37;;;;;;;17.20;9.77;;;;;;;;;;5030761;28;20048;-73
2022/03/02 13:29:06;;;;;;;16.83;8.73;;;;;;;;;;5031893;28;20139;-74
2022/03/02 13:31:53;;;;;;;18.35;9.45;;;;;;;;;;5033949;28;21020;-74
2022/03/02 13:34:21;;;;;;;20.10;9.98;;;;;;;;;;5035183;28;20053;-74
2022/03/02 13:36:51;;;;;;;19.67;11.43;;;;;;;;;;5031714;28;20090;-74
2022/03/02 13:39:22;;;;;;;22.75;10.98;;;;;;;;;;5037686;28;20057;-73
2022/03/02 13:41:50;;;;;;;23.90;11.50;;;;;;;;;;5035313;28;20045;-73
2022/03/02 13:44:26;;;;;;;21.52;11.18;;;;;;;;;;5032314;28;20056;-74
2022/03/02 13:47:13;;;;;;;22.92;11.20;;;;;;;;;;5034663;28;20045;-73
2022/03/02 13:49:58;;;;;;;23.50;10.93;;;;;;;;;;5036228;28;20123;-73
2022/03/02 13:52:41;;;;;;;22.45;11.02;;;;;;;;;;5033365;28;20053;-73
2022/03/02 13:55:23;;;;;;;20.10;10.82;;;;;;;;;;5032952;28;20049;-74
2022/03/02 13:58:27;;;;;;;23.83;11.25;;;;;;;;;;5034003;28;20076;-73
2022/03/02 14:00:56;;;;;;;20.30;11.02;;;;;;;;;;5038352;28;20045;-73
2022/03/02 14:03:28;;;;;;;19.00;11.13;;;;;;;;;;5034207;28;20053;-73
2022/03/02 14:05:56;;;;;;;21.05;11.02;;;;;;;;;;5037376;28;20060;-74
2022/03/02 14:08:24;;;;;;;21.58;9.57;;;;;;;;;;5035484;28;20713;-74
2022/03/02 14:10:52;;;;;;;20.58;10.45;;;;;;;;;;5035886;28;20033;-74
2022/03/02 14:13:20;;;;;;;19.63;10.32;;;;;;;;;;5035252;28;20144;-73
2022/03/02 14:15:49;;;;;;;21.30;10.25;;;;;;;;;;5032960;28;20140;-73
2022/03/02 14:18:18;;;;;;;20.52;9.82;;;;;;;;;;5031850;28;20049;-75
2022/03/02 14:20:46;;;;;;;23.15;11.25;;;;;;;;;;5034551;28;20052;-74
2022/03/02 14:23:15;;;;;;;23.60;10.75;;;;;;;;;;5038418;28;20051;-75
2022/03/02 14:25:43;;;;;;;20.77;11.10;;;;;;;;;;5033707;28;20071;-74
2022/03/02 14:28:14;;;;;;;22.88;11.40;;;;;;;;;;5029234;28;20057;-74
2022/03/02 14:31:09;;;;;;;23.65;11.50;;;;;;;;;;5033852;28;20060;-76
2022/03/02 14:33:37;;;;;;;24.77;12.05;;;;;;;;;;5035673;28;20049;-74
2022/03/02 14:36:05;;;;;;;28.20;12.35;;;;;;;;;;5033293;28;20103;-74
2022/03/02 14:38:33;;;;;;;23.13;11.05;;;;;;;;;;5035050;28;20049;-74